Time;durP1;ratioP1;P1;durP2;ratioP2;P2;SDS_P1;SDS_P2;PMS_P1;PMS_P2;Temp;Humidity;BMP_temperature;BMP_pressure;BME280_temperature;BME280_humidity;BME280_pressure;Samples;Min_cycle;Max_cycle;Signal;HPM_P1;HPM_P2
2022/02/04 00:22:41;;;;;;;45.08;23.50;;;;;;;5.34;89.20;100429.25;1668071;86;21063;-79
2022/02/04 00:25:20;;;;;;;43.73;24.15;;;;;;;5.34;89.22;100425.41;1670987;84;21123;-79
2022/02/04 00:28:00;;;;;;;41.85;23.55;;;;;;;5.34;89.24;100425.41;1690640;84;21037;-80
2022/02/04 00:30:47;;;;;;;;;;;;;;;5.35;89.18;100431.39;1698468;84;21064;-78
2022/02/04 00:33:30;;;;;;;;;;;;;;;5.35;89.24;100433.95;1697139;84;20237;-78
2022/02/04 00:36:23;;;;;;;43.73;22.15;;;;;;;5.33;89.28;100429.67;1694336;84;21004;-79
2022/02/04 00:39:05;;;;;;;40.10;21.90;;;;;;;5.34;89.26;100427.97;1693855;84;21045;-79
2022/02/04 00:41:47;;;;;;;40.75;21.77;;;;;;;5.33;89.28;100424.55;1694058;84;20988;-80
2022/02/04 00:44:32;;;;;;;40.23;22.27;;;;;;;5.35;89.28;100425.84;1693495;84;21119;-80
2022/02/04 00:47:22;;;;;;;41.43;22.27;;;;;;;5.35;89.26;100424.55;1706036;83;21069;-80
2022/02/04 00:50:18;;;;;;;37.25;21.60;;;;;;;5.35;89.28;100418.14;1694029;84;20992;-80
2022/02/04 00:53:05;;;;;;;40.25;21.23;;;;;;;5.35;89.26;100421.98;1694724;84;21872;-79
2022/02/04 00:55:45;;;;;;;;;;;;;;;5.35;89.30;100416.86;1690157;84;21088;-79
2022/02/04 01:25:54;;;;;;;35.28;20.17;;;;;;;5.37;89.34;100405.33;1693298;84;21116;-78
2022/02/04 01:28:44;;;;;;;43.10;23.00;;;;;;;5.39;89.36;100374.14;1681821;84;21076;-79
2022/02/04 01:31:29;;;;;;;42.70;23.87;;;;;;;5.39;89.36;100369.87;1695033;84;21523;-80
2022/02/04 01:34:14;;;;;;;39.25;22.58;;;;;;;5.39;89.37;100370.30;1685175;84;21571;-80
2022/02/04 01:36:58;;;;;;;39.05;21.35;;;;;;;5.39;89.37;100371.15;1690123;84;21257;-80
2022/02/04 01:39:43;;;;;;;33.78;22.02;;;;;;;5.38;89.35;100370.72;1688881;84;20992;-80
2022/02/04 01:42:27;;;;;;;40.03;22.45;;;;;;;5.37;89.34;100365.59;1688875;84;21609;-79
2022/02/04 01:45:12;;;;;;;41.42;23.83;;;;;;;5.37;89.35;100363.88;1688940;84;21044;-80
2022/02/04 01:47:56;;;;;;;36.58;22.20;;;;;;;5.37;89.38;100360.03;1688629;84;21406;-79
2022/02/04 01:50:41;;;;;;;40.65;22.22;;;;;;;5.37;89.40;100353.62;1688117;84;21571;-80
2022/02/04 01:53:31;;;;;;;37.55;21.93;;;;;;;5.37;89.37;100345.08;1690161;84;21516;-80
2022/02/04 01:56:15;;;;;;;35.40;22.40;;;;;;;5.37;89.41;100343.80;1690226;84;20996;-80
2022/02/04 01:59:00;;;;;;;39.40;24.27;;;;;;;5.37;89.44;100336.96;1689501;84;21328;-79
2022/02/04 02:01:44;;;;;;;38.05;22.93;;;;;;;5.38;89.45;100332.27;1688312;84;21100;-80
2022/02/04 02:04:29;;;;;;;35.90;23.22;;;;;;;5.39;89.42;100330.55;1661654;86;21152;-79
2022/02/04 02:07:18;;;;;;;36.77;21.68;;;;;;;5.38;89.42;100327.56;1660780;86;21116;-79
2022/02/04 02:10:06;;;;;;;35.63;23.45;;;;;;;5.39;89.45;100317.73;1676613;84;21410;-80
2022/02/04 02:13:00;;;;;;;;;;;;;;;5.36;89.41;100317.30;1674008;84;21543;-80
2022/02/04 02:35:04;;;;;;;31.75;20.62;;;;;;;5.33;89.52;100321.15;1677212;84;20925;-79
2022/02/04 02:55:40;;;;;;;34.23;20.55;;;;;;;5.29;89.50;100333.11;1691709;84;21024;-79
2022/02/04 02:58:19;;;;;;;34.78;22.17;;;;;;;5.30;89.55;100338.66;1677484;84;21110;-79
2022/02/04 03:01:07;;;;;;;33.50;20.55;;;;;;;5.31;89.53;100336.95;1695773;84;21469;-79
2022/02/04 03:03:55;;;;;;;31.82;22.25;;;;;;;5.32;89.55;100339.52;1695923;84;22230;-80
2022/02/04 03:06:39;;;;;;;;;;;;;;;5.32;89.54;100333.54;1697217;84;21022;-79
2022/02/04 03:09:23;;;;;;;;;;;;;;;5.31;89.52;100333.97;1692554;84;20237;-79
2022/02/04 03:12:09;;;;;;;38.30;22.93;;;;;;;5.30;89.56;100333.53;1695637;84;20667;-79
2022/02/04 03:14:53;;;;;;;33.33;23.20;;;;;;;5.30;89.53;100331.40;1696349;84;20937;-79
2022/02/04 03:17:40;;;;;;;34.80;23.10;;;;;;;5.29;89.53;100323.28;1709885;83;20988;-80
2022/02/04 03:20:25;;;;;;;35.63;23.73;;;;;;;5.29;89.54;100325.84;1697420;84;21043;-80
2022/02/04 03:23:10;;;;;;;40.48;26.15;;;;;;;5.30;89.57;100326.27;1695973;84;21525;-80
2022/02/04 03:26:03;;;;;;;43.63;25.88;;;;;;;5.28;89.51;100330.11;1696418;84;21293;-80
2022/02/04 03:28:41;;;;;;;43.17;26.10;;;;;;;5.28;89.52;100330.11;1698129;83;20941;-80
2022/02/04 03:31:30;;;;;;;36.40;23.62;;;;;;;5.27;89.53;100328.41;1695272;84;20944;-80
2022/02/04 03:34:12;;;;;;;35.65;23.90;;;;;;;5.28;89.59;100327.55;1690803;84;20921;-80
2022/02/04 03:36:56;;;;;;;37.08;23.73;;;;;;;5.27;89.55;100331.39;1694484;84;20927;-81
2022/02/04 03:39:41;;;;;;;40.92;24.55;;;;;;;5.29;89.56;100329.69;1697831;84;20928;-81
2022/02/04 03:42:25;;;;;;;37.98;24.18;;;;;;;5.27;89.53;100329.69;1697189;84;20929;-81
2022/02/04 03:45:10;;;;;;;37.40;23.95;;;;;;;5.26;89.56;100325.41;1697628;84;20953;-81
2022/02/04 03:47:54;;;;;;;35.70;23.85;;;;;;;5.27;89.58;100322.00;1671320;83;21314;-80
2022/02/04 03:50:39;;;;;;;36.40;22.80;;;;;;;5.27;89.55;100320.72;1671085;84;20965;-80
2022/02/04 03:53:23;;;;;;;33.20;22.48;;;;;;;5.26;89.59;100319.01;1697624;84;20972;-80
2022/02/04 03:56:07;;;;;;;35.90;22.70;;;;;;;5.28;89.62;100320.29;1697920;84;21038;-80
2022/02/04 03:58:52;;;;;;;41.98;24.40;;;;;;;5.27;89.59;100319.86;1697676;84;20907;-80
2022/02/04 04:01:37;;;;;;;35.80;22.45;;;;;;;5.28;89.59;100315.16;1697380;84;20949;-80
2022/02/04 04:04:25;;;;;;;36.65;22.85;;;;;;;5.28;89.57;100310.03;1697909;84;21320;-81
2022/02/04 04:07:08;;;;;;;35.90;23.50;;;;;;;5.27;89.58;100307.90;1677607;84;20969;-80
2022/02/04 04:09:59;;;;;;;36.25;23.38;;;;;;;5.28;89.61;100305.77;1684697;84;20965;-78
2022/02/04 04:12:38;;;;;;;;;;;;;;;5.27;89.60;100300.64;1699041;84;21409;-78
2022/02/04 04:15:23;;;;;;;36.28;21.87;;;;;;;5.26;89.63;100302.34;1697363;83;20154;-78
2022/02/04 04:18:12;;;;;;;37.67;24.10;;;;;;;5.25;89.62;100303.20;1697648;83;20913;-80
2022/02/04 04:20:54;;;;;;;35.20;23.10;;;;;;;5.25;89.66;100294.23;1697040;84;20928;-79
2022/02/04 04:23:38;;;;;;;40.43;24.05;;;;;;;5.25;89.62;100298.07;1674843;84;20928;-79
2022/02/04 04:26:22;;;;;;;33.02;22.77;;;;;;;5.24;89.62;100297.64;1693148;84;21052;-79
2022/02/04 04:29:08;;;;;;;36.42;22.82;;;;;;;5.24;89.63;100292.95;1695756;84;21044;-79
2022/02/04 04:31:53;;;;;;;33.75;21.80;;;;;;;5.23;89.67;100290.81;1695632;84;21050;-79
2022/02/04 04:34:38;;;;;;;32.93;21.52;;;;;;;5.24;89.64;100291.23;1694018;84;21071;-80
2022/02/04 04:37:24;;;;;;;36.23;22.60;;;;;;;5.23;89.67;100288.67;1692706;84;21047;-81
2022/02/04 04:43:40;;;;;;;40.60;23.12;;;;;;;5.23;89.70;100289.52;1689664;84;21100;-80
2022/02/04 05:31:27;;;;;;;33.60;19.98;;;;;;;5.27;89.80;100290.38;1667161;84;21104;-79
2022/02/04 05:34:19;;;;;;;28.98;21.20;;;;;;;5.28;89.82;100292.95;1673883;84;21034;-79
2022/02/04 05:37:06;;;;;;;27.05;18.87;;;;;;;5.28;89.78;100290.38;1666029;84;21053;-79
2022/02/04 05:39:59;;;;;;;27.73;20.10;;;;;;;5.28;89.80;100285.25;1662645;86;20956;-79
2022/02/04 05:42:45;;;;;;;37.15;20.77;;;;;;;5.29;89.82;100287.39;1683702;84;20929;-79
2022/02/04 05:45:29;;;;;;;;;;;;;;;5.30;89.82;100280.13;1685636;83;20980;-79
2022/02/04 05:48:12;;;;;;;30.70;19.20;;;;;;;5.30;89.87;100280.98;1687861;83;20182;-80
2022/02/04 05:51:29;;;;;;;25.25;18.42;;;;;;;5.31;89.82;100298.08;1684431;83;20965;-79
2022/02/04 05:53:57;;;;;;;24.98;18.92;;;;;;;5.32;89.85;100290.81;1685494;84;20960;-79
2022/02/04 05:56:49;;;;;;;26.17;19.37;;;;;;;5.33;89.83;100293.80;1685952;83;20997;-80
2022/02/04 05:59:44;;;;;;;25.57;18.25;;;;;;;5.35;89.86;100288.67;1642899;86;20999;-80
2022/02/04 06:02:31;;;;;;;26.25;19.37;;;;;;;5.34;89.84;100285.69;1618980;87;21647;-80
2022/02/04 06:05:19;;;;;;;26.10;18.25;;;;;;;5.36;89.84;100290.81;1630025;87;21059;-79
2022/02/04 06:22:51;;;;;;;27.42;19.82;;;;;;;5.36;89.84;100291.66;1677164;84;21387;-82
2022/02/04 06:25:38;;;;;;;29.18;19.48;;;;;;;5.36;89.88;100293.38;1676157;83;21098;-80
2022/02/04 06:28:23;;;;;;;29.95;19.62;;;;;;;5.33;89.89;100305.34;1669058;83;21076;-79
2022/02/04 06:31:08;;;;;;;28.52;20.17;;;;;;;5.35;89.89;100298.08;1670181;83;21100;-78
2022/02/04 06:33:53;;;;;;;27.95;19.82;;;;;;;5.35;89.90;100305.77;1684789;83;20937;-76
2022/02/04 06:36:37;;;;;;;29.60;20.17;;;;;;;5.36;89.94;100310.05;1679674;83;20957;-76
2022/02/04 06:39:22;;;;;;;29.63;20.70;;;;;;;5.38;89.93;100310.89;1675154;84;22056;-76
2022/02/04 06:42:07;;;;;;;27.80;20.37;;;;;;;5.39;89.94;100316.45;1686745;84;21024;-78
2022/02/04 06:44:52;;;;;;;28.25;19.85;;;;;;;5.41;89.97;100317.30;1679645;84;21136;-80
2022/02/04 06:47:37;;;;;;;31.45;19.87;;;;;;;5.41;89.95;100314.31;1687944;83;21084;-79
2022/02/04 06:50:22;;;;;;;29.07;20.92;;;;;;;5.42;89.93;100315.17;1681499;83;21045;-80
2022/02/04 06:53:08;;;;;;;23.65;17.92;;;;;;;5.43;89.88;100321.58;1682613;84;21036;-80
2022/02/04 06:55:53;;;;;;;30.32;19.32;;;;;;;5.43;89.93;100319.44;1684413;84;20965;-81
2022/02/04 06:58:37;;;;;;;27.77;20.17;;;;;;;5.45;89.96;100319.02;1677800;83;21091;-79
2022/02/04 07:01:21;;;;;;;28.52;19.98;;;;;;;5.45;89.97;100322.44;1692738;83;21060;-79
2022/02/04 07:04:08;;;;;;;35.68;22.62;;;;;;;5.47;89.93;100310.90;1680859;83;21102;-80
2022/02/04 07:06:56;;;;;;;26.33;19.15;;;;;;;5.47;89.92;100308.33;1679102;83;21630;-79
2022/02/04 07:09:55;;;;;;;;;;;;;;;5.49;89.94;100309.19;1683664;83;21034;-79
2022/02/04 07:12:40;;;;;;;26.60;18.82;;;;;;;5.50;89.99;100309.19;1679354;83;20182;-79
2022/02/04 07:21:29;;;;;;;28.12;19.20;;;;;;;5.51;90.00;100306.20;1660849;84;21418;-79
2022/02/04 07:24:14;;;;;;;27.60;19.35;;;;;;;5.52;89.96;100306.20;1670508;84;21421;-79
2022/02/04 07:26:58;;;;;;;25.68;19.05;;;;;;;5.53;89.96;100307.05;1668744;84;21405;-79
2022/02/04 07:29:46;;;;;;;28.73;19.92;;;;;;;5.55;90.00;100307.48;1672757;84;21430;-78
2022/02/04 07:32:35;;;;;;;29.50;19.45;;;;;;;5.56;90.00;100309.19;1686340;84;21287;-79
2022/02/04 07:41:12;;;;;;;24.23;17.87;;;;;;;5.62;90.00;100312.17;1643112;85;21088;-79
2022/02/04 07:43:56;;;;;;;28.80;19.77;;;;;;;5.64;90.02;100310.47;1654464;83;21042;-79
2022/02/04 07:46:41;;;;;;;28.35;19.32;;;;;;;5.66;90.04;100316.45;1699201;83;21155;-81
2022/02/04 07:49:28;;;;;;;30.37;20.27;;;;;;;5.69;90.03;100323.29;1682571;83;21100;-78
2022/02/04 07:52:13;;;;;;;26.75;19.75;;;;;;;5.70;90.02;100325.00;1676011;83;21154;-80
2022/02/04 07:54:58;;;;;;;27.13;19.10;;;;;;;5.70;90.03;100329.70;1654740;84;21140;-79
2022/02/04 07:57:44;;;;;;;27.67;19.90;;;;;;;5.71;89.99;100331.41;1686274;83;21508;-80
2022/02/04 08:00:29;;;;;;;27.25;20.05;;;;;;;5.71;90.00;100328.84;1688768;83;21061;-80
2022/02/04 08:06:12;;;;;;;28.92;19.82;;;;;;;5.73;90.06;100320.69;1676858;83;22389;-78
2022/02/04 08:09:05;;;;;;;;;;;;;;;5.76;90.06;100324.95;1687333;83;21404;-78
2022/02/04 08:11:56;;;;;;;32.53;21.30;;;;;;;5.76;90.05;100324.53;1681857;83;21085;-76
2022/02/04 08:20:35;;;;;;;26.70;20.05;;;;;;;5.77;90.04;100321.11;1680058;84;20997;-78
2022/02/04 08:29:18;;;;;;;30.90;21.40;;;;;;;5.87;90.01;100328.37;1686421;84;21077;-79
2022/02/04 08:47:01;;;;;;;31.90;21.25;;;;;;;6.01;90.10;100336.08;1689529;83;21049;-74
2022/02/04 08:55:24;;;;;;;25.43;19.02;;;;;;;6.04;90.09;100329.66;1680189;84;21107;-77
2022/02/04 09:01:23;;;;;;;29.57;20.77;;;;;;;6.04;90.06;100327.95;1683523;84;21149;-79
2022/02/04 09:04:07;;;;;;;31.02;22.48;;;;;;;6.06;90.08;100330.08;1688971;84;21038;-79
2022/02/04 09:06:53;;;;;;;29.37;21.42;;;;;;;6.07;90.09;100321.95;1685719;84;21097;-81
2022/02/04 09:09:50;;;;;;;29.72;21.45;;;;;;;6.10;90.11;100328.36;1685940;84;21024;-82
2022/02/04 09:18:36;;;;;;;32.03;23.32;;;;;;;6.12;90.06;100319.80;1677689;83;21510;-83
2022/02/04 09:21:37;;;;;;;30.20;22.32;;;;;;;6.13;90.08;100316.38;1687026;84;21131;-81
2022/02/04 09:24:15;;;;;;;33.48;21.95;;;;;;;6.16;90.10;100323.21;1682877;84;21123;-83
2022/02/04 09:27:02;;;;;;;28.50;21.40;;;;;;;6.17;90.09;100323.64;1677231;83;21143;-80
2022/02/04 09:29:47;;;;;;;35.58;23.52;;;;;;;6.18;90.12;100318.50;1679046;83;21080;-80
2022/02/04 09:32:31;;;;;;;30.95;21.68;;;;;;;6.20;90.12;100319.35;1658951;84;21129;-81
2022/02/04 09:35:22;;;;;;;30.90;21.95;;;;;;;6.21;90.15;100318.49;1674453;84;21057;-80
2022/02/04 09:38:08;;;;;;;34.78;22.55;;;;;;;6.22;90.08;100315.49;1687748;83;20972;-80
2022/02/04 09:40:52;;;;;;;31.87;23.00;;;;;;;6.24;90.07;100315.03;1684825;83;21439;-79
2022/02/04 09:43:37;;;;;;;32.95;22.48;;;;;;;6.24;90.08;100317.59;1678342;83;21091;-80
2022/02/04 09:46:21;;;;;;;30.30;21.55;;;;;;;6.27;90.10;100324.00;1684962;83;21155;-81
2022/02/04 09:49:17;;;;;;;33.10;22.48;;;;;;;6.29;90.09;100328.28;1693163;83;21053;-80
2022/02/04 10:18:57;;;;;;;29.53;21.57;;;;;;;6.38;89.99;100317.55;1687980;83;21574;-83
2022/02/04 10:21:27;;;;;;;27.37;20.52;;;;;;;6.36;89.98;100317.55;1682770;83;21081;-83
2022/02/04 10:24:12;;;;;;;29.82;21.42;;;;;;;6.35;90.00;100317.56;1678865;83;20992;-82
2022/02/04 10:27:16;;;;;;;26.93;19.92;;;;;;;6.33;89.99;100319.28;1680098;83;21039;-81
2022/02/04 10:30:08;;;;;;;27.22;19.42;;;;;;;6.33;90.00;100310.30;1651646;85;21111;-84
2022/02/04 10:32:54;;;;;;;26.77;19.07;;;;;;;6.31;89.97;100306.45;1624438;86;21417;-83
2022/02/04 10:35:39;;;;;;;25.82;18.17;;;;;;;6.31;89.99;100305.16;1687757;83;21623;-83
2022/02/04 10:38:41;;;;;;;23.32;17.45;;;;;;;6.30;89.99;100302.17;1687808;83;21515;-84
2022/02/04 10:41:28;;;;;;;24.95;18.32;;;;;;;6.29;89.96;100305.17;1688399;83;20983;-82
2022/02/04 10:44:22;;;;;;;;;;;;;;;6.28;89.98;100297.04;1686278;83;21495;-82
2022/02/04 10:47:01;;;;;;;22.13;16.48;;;;;;;6.29;89.99;100302.59;1683875;83;20155;-84
2022/02/04 10:49:58;;;;;;;28.45;20.60;;;;;;;6.29;90.00;100297.47;1674335;84;20938;-85
2022/02/04 10:53:06;;;;;;;;;;;;;;;6.28;89.97;100293.19;1696574;84;20927;-83
2022/02/04 10:58:40;;;;;;;32.85;19.77;;;;;;;6.29;90.00;100279.92;1692006;83;21428;-80
2022/02/04 11:01:17;;;;;;;26.15;19.25;;;;;;;6.31;90.06;100277.77;1676547;83;20993;-83
2022/02/04 11:04:25;;;;;;;27.10;19.55;;;;;;;6.35;90.04;100276.05;1681845;83;21468;-84
2022/02/04 11:31:28;;;;;;;31.42;20.82;;;;;;;6.57;90.04;100240.84;1681483;83;21127;-84
2022/02/04 11:34:22;;;;;;;28.23;20.90;;;;;;;6.59;90.00;100237.41;1685389;83;21024;-83
2022/02/04 11:52:42;;;;;;;24.60;18.52;;;;;;;6.66;89.87;100224.52;1675231;83;21094;-79
2022/02/04 11:55:32;;;;;;;26.40;19.73;;;;;;;6.64;89.83;100228.38;1675726;83;21053;-79
2022/02/04 11:58:17;;;;;;;25.65;18.77;;;;;;;6.63;89.87;100225.39;1685404;83;21056;-79
2022/02/04 12:01:05;;;;;;;23.30;17.73;;;;;;;6.62;89.86;100220.69;1678260;83;21440;-78
2022/02/04 12:03:54;;;;;;;24.55;18.75;;;;;;;6.63;89.89;100221.11;1657792;84;20925;-78
2022/02/04 12:06:40;;;;;;;25.85;18.82;;;;;;;6.64;89.88;100215.54;1672351;84;20992;-78
2022/02/04 12:09:36;;;;;;;26.17;18.92;;;;;;;6.64;89.89;100209.97;1684339;83;20941;-80
2022/02/04 12:13:09;;;;;;;26.10;18.87;;;;;;;6.64;89.85;100203.98;1681071;83;20937;-78
2022/02/04 12:16:07;;;;;;;22.93;18.10;;;;;;;6.65;89.87;100199.27;1674464;83;20989;-77
2022/02/04 12:19:07;;;;;;;24.43;18.55;;;;;;;6.70;89.92;100201.80;1690090;84;21346;-81
2022/02/04 12:21:52;;;;;;;22.32;17.77;;;;;;;6.74;89.92;100192.78;1686662;84;20973;-78
2022/02/04 12:24:41;;;;;;;24.18;18.12;;;;;;;6.76;89.87;100185.87;1662479;84;21005;-81
2022/02/04 12:27:34;;;;;;;20.72;15.93;;;;;;;6.79;89.85;100191.42;1686675;83;20949;-78
2022/02/04 12:30:35;;;;;;;19.70;15.00;;;;;;;6.80;89.81;100186.70;1681180;83;21334;-79
2022/02/04 12:33:19;;;;;;;19.65;14.83;;;;;;;6.81;89.79;100184.56;1689193;84;21477;-81
2022/02/04 12:36:04;;;;;;;16.55;12.95;;;;;;;6.82;89.76;100182.41;1683991;84;20967;-78
2022/02/04 12:38:52;;;;;;;15.95;12.73;;;;;;;6.85;89.79;100171.67;1684003;83;20923;-78
2022/02/04 12:41:46;;;;;;;13.22;11.40;;;;;;;6.89;89.82;100172.50;1651892;85;20949;-78
2022/02/04 12:44:37;;;;;;;16.97;12.07;;;;;;;6.89;89.71;100173.79;1658393;84;20968;-78
2022/02/04 12:47:24;;;;;;;15.72;12.33;;;;;;;6.89;89.69;100166.93;1655199;84;21837;-77
2022/02/04 12:50:09;;;;;;;16.30;12.43;;;;;;;6.90;89.64;100166.50;1653099;84;20930;-78
2022/02/04 12:52:54;;;;;;;16.65;12.25;;;;;;;6.85;89.56;100166.53;1652436;84;20978;-81
2022/02/04 12:55:59;;;;;;;17.90;13.30;;;;;;;6.83;89.60;100173.41;1661614;85;20905;-80
2022/02/04 12:58:56;;;;;;;;;;;;;;;6.80;89.63;100172.14;1652789;84;20930;-82
2022/02/04 13:07:34;;;;;;;18.73;13.98;;;;;;;6.79;89.68;100154.16;1649126;86;21669;-80
2022/02/04 13:10:26;;;;;;;;;;;;;;;6.80;89.68;100149.45;1661508;85;21115;-79
2022/02/04 13:13:16;;;;;;;18.92;13.43;;;;;;;6.79;89.65;100145.17;1652839;86;20285;-79
2022/02/04 13:16:00;;;;;;;19.42;13.08;;;;;;;6.79;89.67;100141.32;1662698;84;21103;-79
2022/02/04 13:18:45;;;;;;;18.10;13.95;;;;;;;6.78;89.63;100147.33;1655935;84;21060;-80
2022/02/04 13:21:32;;;;;;;18.67;14.03;;;;;;;6.80;89.69;100137.45;1660795;84;21083;-79
2022/02/04 13:24:19;;;;;;;19.42;13.95;;;;;;;6.80;89.68;100128.89;1656923;84;21111;-79
2022/02/04 13:27:12;;;;;;;18.52;13.18;;;;;;;6.80;89.66;100125.89;1657331;86;21069;-78
2022/02/04 13:29:57;;;;;;;17.20;13.45;;;;;;;6.81;89.63;100127.59;1664546;86;21062;-79
2022/02/04 13:32:43;;;;;;;15.95;12.93;;;;;;;6.83;89.62;100122.44;1662315;84;21059;-79
2022/02/04 13:35:38;;;;;;;16.93;12.63;;;;;;;6.83;89.60;100126.30;1658449;86;21025;-76
2022/02/04 13:39:07;;;;;;;16.95;13.00;;;;;;;6.82;89.60;100111.74;1654397;86;21556;-77
2022/02/04 13:41:40;;;;;;;15.88;11.15;;;;;;;6.80;89.55;100114.33;1684229;83;21063;-77
2022/02/04 13:47:48;;;;;;;17.52;12.10;;;;;;;6.78;89.54;100104.92;1690445;83;21061;-76
2022/02/04 13:51:02;;;;;;;13.68;10.78;;;;;;;6.79;89.55;100111.77;1691953;83;21495;-77
2022/02/04 13:53:30;;;;;;;;;;;;;;;6.79;89.54;100102.34;1694725;84;21070;-77
2022/02/04 13:56:18;;;;;;;13.25;10.45;;;;;;;6.78;89.44;100112.63;1689767;83;20185;-76
2022/02/04 13:59:14;;;;;;;15.32;11.12;;;;;;;6.76;89.46;100103.66;1626977;86;21075;-77
2022/02/04 14:02:20;;;;;;;14.90;10.72;;;;;;;6.74;89.44;100108.42;1694085;84;20955;-77
2022/02/04 14:05:03;;;;;;;15.98;10.60;;;;;;;6.72;89.42;100102.01;1654651;86;20924;-76
2022/02/04 14:07:52;;;;;;;12.40;11.10;;;;;;;6.69;89.41;100099.47;1699207;83;21458;-76
2022/02/04 14:10:40;;;;;;;13.15;10.45;;;;;;;6.69;89.44;100094.33;1653260;86;21392;-76
2022/02/04 14:13:24;;;;;;;12.23;10.80;;;;;;;6.67;89.42;100093.48;1681438;83;21004;-76
2022/02/04 14:16:11;;;;;;;12.05;10.18;;;;;;;6.67;89.37;100096.48;1693374;83;21504;-76
2022/02/04 14:18:56;;;;;;;13.70;10.43;;;;;;;6.67;89.38;100100.34;1694042;84;20951;-77
2022/02/04 14:21:40;;;;;;;13.00;10.75;;;;;;;6.64;89.34;100095.65;1618264;85;21413;-77
2022/02/04 14:24:27;;;;;;;11.50;10.30;;;;;;;6.61;89.36;100095.67;1685802;83;20964;-77
2022/02/04 14:27:11;;;;;;;14.05;11.75;;;;;;;6.61;89.35;100094.39;1682241;84;21677;-77
2022/02/04 14:30:04;;;;;;;12.33;10.72;;;;;;;6.58;89.33;100087.14;1691152;84;21100;-77
2022/02/04 14:32:54;;;;;;;15.23;11.10;;;;;;;6.56;89.32;100089.72;1694324;84;21050;-76
2022/02/04 14:35:48;;;;;;;15.30;10.98;;;;;;;6.54;89.27;100090.59;1682914;83;21548;-76
2022/02/04 14:53:59;;;;;;;19.32;13.72;;;;;;;6.39;89.25;100072.73;1690063;84;20915;-76
2022/02/04 15:02:46;;;;;;;22.58;13.13;;;;;;;6.31;89.20;100071.51;1678241;83;21400;-76
2022/02/04 15:05:22;;;;;;;;;;;;;;;6.28;89.22;100064.68;1691946;84;20998;-76
2022/02/04 15:08:10;;;;;;;18.05;12.50;;;;;;;6.26;89.15;100057.85;1676161;83;20732;-76
2022/02/04 15:10:51;;;;;;;15.72;12.00;;;;;;;6.24;89.18;100057.01;1679950;83;20991;-76
2022/02/04 15:13:36;;;;;;;14.80;11.88;;;;;;;6.23;89.16;100060.47;1684496;83;20934;-75
2022/02/04 15:16:20;;;;;;;20.02;12.15;;;;;;;6.22;89.18;100056.20;1673991;83;20945;-75
2022/02/04 15:19:05;;;;;;;16.52;11.88;;;;;;;6.21;89.15;100051.93;1689841;83;20933;-75
2022/02/04 15:21:52;;;;;;;16.50;10.80;;;;;;;6.19;89.11;100053.66;1679002;83;21505;-75
2022/02/04 15:24:36;;;;;;;18.20;12.43;;;;;;;6.19;89.12;100061.36;1683628;84;21414;-75
2022/02/04 15:27:21;;;;;;;15.95;11.18;;;;;;;6.17;89.12;100060.52;1689085;83;21274;-75
2022/02/04 15:30:07;;;;;;;15.98;10.88;;;;;;;6.16;89.12;100053.25;1676644;84;20981;-76
2022/02/04 15:32:51;;;;;;;13.05;10.25;;;;;;;6.15;89.09;100042.56;1689807;84;28101;-76
2022/02/04 15:35:36;;;;;;;15.60;10.65;;;;;;;6.13;89.09;100039.58;1694379;83;21052;-75
2022/02/04 15:38:21;;;;;;;12.20;9.90;;;;;;;6.13;89.07;100039.58;1688448;84;20923;-75
2022/02/04 15:41:13;;;;;;;15.58;9.68;;;;;;;6.12;89.07;100036.59;1688882;83;20952;-75
2022/02/04 15:43:56;;;;;;;12.23;9.90;;;;;;;6.11;89.07;100028.05;1669218;83;20928;-75
2022/02/04 15:46:58;;;;;;;13.00;9.95;;;;;;;6.11;89.06;100022.91;1678685;83;20885;-75
2022/02/04 15:49:50;;;;;;;29.42;11.48;;;;;;;6.08;89.02;100018.23;1678158;84;20916;-75
2022/02/04 16:04:01;;;;;;;15.78;11.03;;;;;;;6.05;89.03;100013.97;1679040;84;20992;-75
2022/02/04 16:06:37;;;;;;;18.57;11.63;;;;;;;6.06;89.04;100012.25;1663792;84;21043;-76
2022/02/04 16:09:23;;;;;;;17.52;12.05;;;;;;;6.06;89.04;100010.97;1680504;84;21634;-78
2022/02/04 16:12:20;;;;;;;15.98;12.13;;;;;;;6.05;89.02;100004.14;1670123;84;21332;-77
2022/02/04 16:14:59;;;;;;;17.17;11.97;;;;;;;6.03;89.00;100002.02;1666002;84;21055;-78
2022/02/04 16:17:53;;;;;;;16.42;11.03;;;;;;;6.01;89.01;99996.89;1678968;83;21106;-77
2022/02/04 16:27:09;;;;;;;16.87;11.12;;;;;;;6.00;89.01;99986.63;1662121;84;21087;-75
2022/02/04 16:29:44;;;;;;;15.35;10.98;;;;;;;5.97;89.02;99986.23;1668567;84;21067;-76
2022/02/04 16:32:29;;;;;;;17.10;11.88;;;;;;;5.95;89.03;99981.11;1685659;84;26851;-76
2022/02/04 16:35:14;;;;;;;17.05;11.43;;;;;;;5.95;89.03;99975.12;1685742;84;21059;-76
2022/02/04 16:38:04;;;;;;;17.10;11.38;;;;;;;5.94;89.04;99979.83;1680782;84;21071;-76
2022/02/04 16:40:53;;;;;;;17.77;11.65;;;;;;;5.92;89.02;99975.14;1682499;84;22158;-77
2022/02/04 16:43:35;;;;;;;;;;;;;;;5.92;89.02;99981.13;1690864;84;21623;-77
2022/02/04 16:46:20;;;;;;;15.85;10.95;;;;;;;5.92;89.07;99978.56;1682722;83;20241;-77
2022/02/04 16:49:05;;;;;;;14.90;10.43;;;;;;;5.91;89.03;99974.72;1685038;84;21105;-76
2022/02/04 16:51:49;;;;;;;16.82;10.70;;;;;;;5.89;89.02;99964.47;1688363;84;21111;-76
2022/02/04 16:54:34;;;;;;;15.88;10.23;;;;;;;5.89;89.01;99964.91;1687970;83;21508;-76
2022/02/04 16:57:19;;;;;;;13.62;10.05;;;;;;;5.88;89.04;99956.32;1687703;84;21106;-77
2022/02/04 17:00:20;;;;;;;17.45;10.90;;;;;;;5.88;89.02;99956.32;1689972;84;20935;-76
2022/02/04 17:02:58;;;;;;;12.80;10.05;;;;;;;5.87;89.00;99941.79;1669426;83;21005;-76
2022/02/04 17:08:36;;;;;;;75.17;52.50;;;;;;;5.86;89.00;99928.55;1684421;83;21710;-77
2022/02/04 17:11:22;;;;;;;121.25;76.37;;;;;;;5.86;88.98;99931.11;1683902;84;20947;-77
2022/02/04 17:14:06;;;;;;;;;;;;;;;5.86;89.00;99935.39;1676239;84;20966;-77
2022/02/04 17:16:51;;;;;;;62.78;34.83;;;;;;;5.84;88.99;99932.83;1679954;84;20134;-77
2022/02/04 17:19:48;;;;;;;132.80;74.15;;;;;;;5.83;88.98;99928.56;1690259;84;20967;-77
2022/02/04 17:22:24;;;;;;;88.27;47.10;;;;;;;5.83;89.01;99929.00;1689428;84;20960;-77
2022/02/04 17:25:11;;;;;;;68.42;38.33;;;;;;;5.82;88.99;99922.16;1688087;84;21416;-77
2022/02/04 17:27:57;;;;;;;43.92;23.83;;;;;;;5.82;88.99;99921.73;1673690;84;21002;-78
2022/02/04 17:30:42;;;;;;;71.82;42.30;;;;;;;5.83;88.98;99925.15;1690135;84;21372;-78
2022/02/04 17:33:28;;;;;;;74.58;48.15;;;;;;;5.83;88.98;99922.15;1687886;84;21536;-77
2022/02/04 17:36:13;;;;;;;50.88;40.83;;;;;;;5.84;88.98;99921.28;1688517;84;21316;-77
2022/02/04 17:38:58;;;;;;;110.05;73.52;;;;;;;5.85;88.97;99916.58;1680318;84;21118;-78
2022/02/04 17:41:46;;;;;;;53.02;35.63;;;;;;;5.85;88.94;99912.73;1691392;83;21657;-78
2022/02/04 17:44:30;;;;;;;48.85;33.30;;;;;;;5.86;88.92;99917.43;1661557;86;20957;-77
2022/02/04 17:47:16;;;;;;;20.80;15.20;;;;;;;5.86;88.90;99914.86;1696221;83;21078;-79
2022/02/04 17:50:12;;;;;;;22.20;19.17;;;;;;;5.88;88.90;99918.27;1696279;84;21348;-78
2022/02/04 17:53:00;;;;;;;14.98;11.40;;;;;;;5.87;88.90;99917.42;1696201;84;20943;-77
2022/02/04 17:55:47;;;;;;;17.07;12.68;;;;;;;5.87;88.86;99905.88;1695934;84;20939;-76
2022/02/04 17:58:31;;;;;;;;;;;;;;;5.87;88.85;99902.45;1694544;84;20923;-76
2022/02/04 18:07:16;;;;;;;12.07;9.30;;;;;;;5.88;88.84;99888.33;1694507;83;21042;-76
2022/02/04 18:10:00;;;;;;;11.10;9.28;;;;;;;5.89;88.81;99895.20;1694851;84;21031;-76
2022/02/04 18:12:45;;;;;;;18.60;14.25;;;;;;;5.90;88.78;99885.78;1687576;83;21036;-77
2022/02/04 18:15:30;;;;;;;19.90;16.73;;;;;;;5.90;88.78;99884.50;1688398;83;21040;-77
2022/02/04 18:18:17;;;;;;;16.05;11.15;;;;;;;5.89;88.76;99882.37;1693104;84;21106;-77
2022/02/04 18:21:03;;;;;;;15.48;11.53;;;;;;;5.91;88.74;99887.48;1696128;84;20915;-77
2022/02/04 18:23:47;;;;;;;17.07;11.88;;;;;;;5.90;88.76;99881.50;1688545;84;21473;-79
2022/02/04 18:26:32;;;;;;;27.85;21.27;;;;;;;5.91;88.74;99885.77;1687568;84;20991;-78
2022/02/04 18:29:17;;;;;;;40.23;31.35;;;;;;;5.90;88.71;99888.34;1689956;83;21502;-77